createdAt,value
2022-12-04T00:01:27.424Z,17.80
2022-12-04T00:03:56.174Z,17.80
2022-12-04T00:06:23.773Z,16.85
2022-12-04T00:08:51.261Z,17.15
2022-12-04T00:11:20.572Z,17.60
2022-12-04T00:13:48.181Z,16.55
2022-12-04T00:16:18.287Z,16.60
2022-12-04T00:18:45.850Z,17.30
2022-12-04T00:21:14.159Z,16.05
2022-12-04T00:23:41.712Z,16.90
2022-12-04T00:26:14.315Z,24.17
2022-12-04T00:28:42.015Z,17.50
2022-12-04T00:31:14.056Z,17.55
2022-12-04T00:33:41.443Z,38.15
2022-12-04T00:36:11.843Z,18.30
2022-12-04T00:38:40.091Z,16.83
2022-12-04T00:41:11.788Z,16.73
2022-12-04T00:43:39.236Z,18.63
2022-12-04T00:46:06.776Z,18.73
2022-12-04T00:48:34.219Z,19.52
2022-12-04T00:51:05.671Z,17.23
2022-12-04T00:53:33.043Z,16.88
2022-12-04T00:56:06.892Z,17.23
2022-12-04T00:58:34.219Z,16.80
2022-12-04T01:01:03.426Z,18.20
2022-12-04T01:03:30.981Z,17.38
2022-12-04T01:05:58.394Z,15.95
2022-12-04T01:08:25.758Z,16.63
2022-12-04T01:10:53.193Z,16.27
2022-12-04T01:13:20.519Z,16.73
2022-12-04T01:15:49.154Z,15.52
2022-12-04T01:18:16.617Z,17.70
2022-12-04T01:20:50.762Z,15.88
2022-12-04T01:25:55.987Z,18.30
2022-12-04T01:28:23.531Z,15.38
2022-12-04T01:31:10.422Z,16.65
2022-12-04T01:33:38.040Z,20.27
2022-12-04T01:36:06.917Z,16.85
2022-12-04T01:38:34.437Z,17.33
2022-12-04T01:41:01.814Z,24.00
2022-12-04T01:43:30.658Z,29.45
2022-12-04T01:45:59.099Z,16.92
2022-12-04T01:48:27.869Z,19.55
2022-12-04T01:50:58.899Z,16.02
2022-12-04T01:53:26.259Z,15.90
2022-12-04T01:55:53.551Z,15.80
2022-12-04T01:58:24.330Z,15.50
2022-12-04T02:00:56.881Z,15.10
2022-12-04T02:03:25.569Z,15.63
2022-12-04T02:05:52.911Z,15.43
2022-12-04T02:08:20.260Z,15.48
2022-12-04T02:11:06.129Z,15.60
2022-12-04T02:14:05.262Z,14.40
2022-12-04T02:16:55.994Z,16.05
2022-12-04T02:19:55.196Z,14.32
2022-12-04T02:22:41.528Z,14.90
2022-12-04T02:25:37.907Z,14.63
2022-12-04T02:28:08.281Z,14.13
2022-12-04T02:30:37.635Z,15.00
2022-12-04T02:33:28.150Z,14.70
2022-12-04T02:36:22.909Z,14.82
2022-12-04T02:41:23.101Z,13.05
2022-12-04T02:43:55.822Z,13.93
2022-12-04T02:46:32.055Z,22.92
2022-12-04T02:49:01.222Z,22.60
2022-12-04T02:51:30.251Z,16.83
2022-12-04T02:54:09.349Z,24.95
2022-12-04T02:56:39.266Z,16.85
2022-12-04T02:59:42.422Z,18.73
2022-12-04T03:02:12.882Z,17.17
2022-12-04T03:04:40.275Z,17.20
2022-12-04T03:07:11.631Z,18.15
2022-12-04T03:09:51.147Z,18.15
2022-12-04T03:12:46.113Z,17.90
2022-12-04T03:15:18.056Z,17.10
2022-12-04T03:18:06.569Z,16.98
2022-12-04T03:20:34.642Z,17.42
2022-12-04T03:23:30.128Z,16.55
2022-12-04T03:26:07.718Z,15.88
2022-12-04T03:28:57.392Z,15.98
2022-12-04T03:31:43.399Z,15.95
2022-12-04T03:34:10.868Z,15.80
2022-12-04T03:36:40.002Z,18.88
2022-12-04T03:39:33.332Z,31.80
2022-12-04T03:42:04.807Z,17.63
2022-12-04T03:44:46.090Z,16.08
2022-12-04T03:47:30.035Z,15.88
2022-12-04T03:50:02.717Z,15.15
2022-12-04T03:53:06.180Z,14.93
2022-12-04T03:55:47.354Z,15.60
2022-12-04T03:58:20.019Z,14.95
2022-12-04T04:00:47.356Z,15.55
2022-12-04T04:03:18.069Z,15.60
2022-12-04T04:05:47.365Z,15.10
2022-12-04T04:08:30.969Z,15.35
2022-12-04T04:11:10.298Z,15.80
2022-12-04T04:14:24.317Z,15.73
2022-12-04T04:17:18.873Z,15.07
2022-12-04T04:20:06.842Z,15.98
2022-12-04T04:22:55.964Z,14.68
2022-12-04T04:25:26.824Z,27.00
2022-12-04T04:27:55.382Z,16.67
2022-12-04T04:30:22.800Z,15.02
2022-12-04T04:33:01.454Z,13.75
2022-12-04T04:35:34.202Z,13.98
2022-12-04T04:38:33.199Z,13.27
2022-12-04T04:41:25.263Z,13.90
2022-12-04T04:44:12.484Z,14.57
2022-12-04T04:46:42.294Z,14.68
2022-12-04T04:49:10.350Z,15.18
2022-12-04T04:51:37.681Z,15.23
2022-12-04T04:54:06.613Z,18.80
2022-12-04T04:56:39.347Z,16.92
2022-12-04T04:59:06.674Z,15.45
2022-12-04T05:01:34.029Z,14.75
2022-12-04T05:04:02.827Z,15.82
2022-12-04T05:06:30.171Z,15.00
2022-12-04T05:08:57.723Z,15.57
2022-12-04T05:11:25.045Z,15.95
2022-12-04T05:13:52.855Z,15.10
2022-12-04T05:16:20.312Z,15.63
2022-12-04T05:19:06.745Z,14.93
2022-12-04T05:21:34.275Z,15.25
2022-12-04T05:24:01.642Z,14.88
2022-12-04T05:26:28.987Z,15.50
2022-12-04T05:28:56.322Z,16.10
2022-12-04T05:31:24.075Z,15.35
2022-12-04T05:33:51.389Z,13.98
2022-12-04T05:36:18.704Z,15.93
2022-12-04T05:38:46.025Z,15.52
2022-12-04T05:41:13.361Z,15.50
2022-12-04T05:43:40.677Z,15.18
2022-12-04T05:46:08.504Z,15.25
2022-12-04T05:48:35.997Z,14.27
2022-12-04T05:51:10.030Z,15.02
2022-12-04T05:53:37.479Z,15.10
2022-12-04T05:56:05.464Z,16.13
2022-12-04T05:58:35.509Z,15.90
2022-12-04T06:01:09.343Z,14.68
2022-12-04T06:03:36.761Z,15.43
2022-12-04T06:06:04.677Z,14.85
2022-12-04T06:08:32.248Z,14.20
2022-12-04T06:10:59.522Z,15.02
2022-12-04T06:13:27.157Z,14.05
2022-12-04T06:15:54.465Z,13.88
2022-12-04T06:18:21.769Z,12.48
2022-12-04T06:20:49.183Z,16.70
2022-12-04T06:23:16.535Z,14.43
2022-12-04T06:25:43.821Z,15.60
2022-12-04T06:28:11.159Z,14.82
2022-12-04T06:30:38.446Z,15.65
2022-12-04T06:33:05.786Z,15.23
2022-12-04T06:35:33.083Z,15.85
2022-12-04T06:38:00.380Z,16.75
2022-12-04T06:40:27.643Z,15.73
2022-12-04T06:42:55.002Z,15.05
2022-12-04T06:45:22.391Z,16.17
2022-12-04T06:47:49.698Z,15.60
2022-12-04T06:50:17.040Z,15.68
2022-12-04T06:52:44.313Z,15.45
2022-12-04T06:55:11.604Z,15.10
2022-12-04T06:57:38.988Z,16.15
2022-12-04T07:00:06.970Z,15.95
2022-12-04T07:02:34.330Z,14.75
2022-12-04T07:05:01.678Z,15.25
2022-12-04T07:07:29.044Z,15.70
2022-12-04T07:09:56.686Z,15.55
2022-12-04T07:12:24.129Z,14.60
2022-12-04T07:14:51.413Z,13.82
2022-12-04T07:17:18.766Z,14.77
2022-12-04T07:19:46.138Z,15.25
2022-12-04T07:22:13.507Z,14.48
2022-12-04T07:24:40.930Z,15.20
2022-12-04T07:27:08.237Z,14.25
2022-12-04T07:29:35.517Z,15.20
2022-12-04T07:32:02.937Z,15.70
2022-12-04T07:34:30.566Z,15.23
2022-12-04T07:36:57.870Z,15.02
2022-12-04T07:39:25.164Z,13.70
2022-12-04T07:41:52.466Z,15.13
2022-12-04T07:44:19.756Z,14.65
2022-12-04T07:46:47.212Z,15.98
2022-12-04T07:49:14.666Z,16.13
2022-12-04T07:51:42.099Z,15.60
2022-12-04T07:54:09.442Z,15.90
2022-12-04T07:56:36.723Z,17.17
2022-12-04T07:59:04.104Z,15.18
2022-12-04T08:01:31.963Z,16.92
2022-12-04T08:03:59.887Z,17.08
2022-12-04T08:06:29.451Z,16.85
2022-12-04T08:08:58.035Z,16.17
2022-12-04T08:11:26.348Z,15.52
2022-12-04T08:14:03.908Z,15.88
2022-12-04T08:16:32.620Z,17.15
2022-12-04T08:19:00.179Z,16.55
2022-12-04T08:21:28.674Z,17.00
2022-12-04T08:23:56.550Z,16.88
2022-12-04T08:26:25.056Z,18.10
2022-12-04T08:28:56.342Z,17.40
2022-12-04T08:31:25.863Z,17.77
2022-12-04T08:33:54.403Z,17.50
2022-12-04T08:36:22.370Z,17.88
2022-12-04T08:38:49.746Z,18.00
2022-12-04T08:41:18.852Z,16.88
2022-12-04T08:43:46.154Z,19.55
2022-12-04T08:46:15.126Z,17.83
2022-12-04T08:48:42.561Z,18.42
2022-12-04T08:51:18.086Z,18.63
2022-12-04T08:53:45.573Z,17.88
2022-12-04T08:56:13.015Z,17.90
2022-12-04T08:58:40.372Z,18.10
2022-12-04T09:01:11.632Z,17.75
2022-12-04T09:03:39.291Z,17.42
2022-12-04T09:06:07.422Z,19.52
2022-12-04T09:08:35.240Z,18.27
2022-12-04T09:11:06.726Z,16.92
2022-12-04T09:13:34.221Z,18.88
2022-12-04T09:16:04.168Z,18.90
2022-12-04T09:18:31.602Z,18.45
2022-12-04T09:20:59.979Z,18.95
2022-12-04T09:23:27.480Z,18.13
2022-12-04T09:25:54.890Z,18.60
2022-12-04T09:28:22.275Z,17.88
2022-12-04T09:30:57.836Z,16.67
2022-12-04T09:33:25.278Z,16.60
2022-12-04T09:35:52.583Z,15.85
2022-12-04T09:38:20.244Z,17.05
2022-12-04T09:41:15.288Z,17.38
2022-12-04T09:43:47.816Z,15.77
2022-12-04T09:46:23.171Z,16.67
2022-12-04T09:48:50.515Z,16.42
2022-12-04T09:51:19.649Z,15.98
2022-12-04T09:54:11.971Z,16.98
2022-12-04T09:56:39.389Z,16.60
2022-12-04T09:59:14.047Z,16.85
2022-12-04T10:02:10.458Z,16.95
2022-12-04T10:04:37.822Z,16.35
2022-12-04T10:07:13.196Z,16.42
2022-12-04T10:09:54.372Z,15.73
2022-12-04T10:12:49.477Z,16.15
2022-12-04T10:18:16.871Z,14.60
2022-12-04T10:21:11.348Z,13.77
2022-12-04T10:23:53.269Z,13.90
2022-12-04T10:26:22.630Z,15.13
2022-12-04T10:28:58.814Z,14.45
2022-12-04T10:31:26.518Z,15.88
2022-12-04T10:34:12.838Z,15.50
2022-12-04T10:36:40.156Z,15.10
2022-12-04T10:39:14.807Z,13.85
2022-12-04T10:41:59.578Z,15.48
2022-12-04T10:44:27.073Z,15.68
2022-12-04T10:46:58.862Z,16.30
2022-12-04T10:49:30.597Z,15.98
2022-12-04T10:51:57.982Z,16.25
2022-12-04T10:54:31.585Z,17.48
2022-12-04T10:56:59.627Z,17.08
2022-12-04T10:59:27.255Z,16.00
2022-12-04T11:02:23.287Z,17.02
2022-12-04T11:05:01.738Z,17.75
2022-12-04T11:07:37.113Z,18.02
2022-12-04T11:10:07.170Z,17.98
2022-12-04T11:12:34.791Z,18.63
2022-12-04T11:15:08.124Z,17.42
2022-12-04T11:17:35.490Z,18.30
2022-12-04T11:20:08.799Z,17.13
2022-12-04T11:22:36.955Z,16.23
2022-12-04T11:25:04.401Z,16.40
2022-12-04T11:27:34.981Z,17.08
2022-12-04T11:30:03.735Z,17.83
2022-12-04T11:32:33.161Z,18.50
2022-12-04T11:35:05.026Z,19.80
2022-12-04T11:37:33.976Z,17.58
2022-12-04T11:40:03.501Z,17.77
2022-12-04T11:42:31.352Z,17.95
2022-12-04T11:45:04.372Z,16.83
2022-12-04T11:47:33.027Z,17.83
2022-12-04T11:50:26.375Z,15.88
2022-12-04T11:53:11.922Z,17.05
2022-12-04T11:55:48.113Z,15.88
2022-12-04T11:58:15.442Z,16.40
2022-12-04T12:01:08.820Z,16.33
2022-12-04T12:04:03.532Z,17.58
2022-12-04T12:06:37.922Z,16.88
2022-12-04T12:09:11.378Z,17.92
2022-12-04T12:11:48.014Z,16.98
2022-12-04T12:14:30.284Z,18.50
2022-12-04T12:17:21.772Z,18.92
2022-12-04T12:20:01.342Z,19.15
2022-12-04T12:22:34.750Z,18.67
2022-12-04T12:25:02.058Z,18.60
2022-12-04T12:27:52.990Z,18.02
2022-12-04T12:30:23.638Z,18.45
2022-12-04T12:33:08.518Z,19.38
2022-12-04T12:35:58.332Z,18.73
2022-12-04T12:38:28.777Z,18.80
2022-12-04T12:40:59.172Z,19.20
2022-12-04T12:43:33.367Z,17.45
2022-12-04T12:48:52.496Z,12.10
2022-12-04T12:51:42.229Z,15.05
2022-12-04T12:54:39.080Z,13.80
2022-12-04T12:57:10.663Z,13.75
2022-12-04T12:59:38.781Z,14.43
2022-12-04T13:02:25.524Z,14.05
2022-12-04T13:04:53.815Z,13.48
2022-12-04T13:07:26.317Z,13.82
2022-12-04T13:10:00.682Z,14.13
2022-12-04T13:14:55.501Z,12.88
2022-12-04T13:17:35.231Z,13.95
2022-12-04T13:20:09.641Z,13.65
2022-12-04T13:22:52.174Z,13.43
2022-12-04T13:25:22.299Z,12.35
2022-12-04T13:28:17.185Z,13.90
2022-12-04T13:30:44.598Z,15.98
2022-12-04T13:33:14.788Z,14.73
2022-12-04T13:36:05.849Z,14.35
2022-12-04T13:38:55.114Z,15.85
2022-12-04T13:41:25.746Z,15.63
2022-12-04T13:43:53.574Z,15.82
2022-12-04T13:46:40.265Z,16.00
2022-12-04T13:49:33.381Z,15.90
2022-12-04T13:52:02.554Z,16.30
2022-12-04T13:54:34.597Z,16.27
2022-12-04T13:57:22.357Z,15.93
2022-12-04T13:59:50.105Z,15.52
2022-12-04T14:02:35.603Z,16.40
2022-12-04T14:05:10.786Z,18.02
2022-12-04T14:07:39.831Z,16.77
2022-12-04T14:10:16.873Z,18.05
2022-12-04T14:12:57.063Z,18.25
2022-12-04T14:15:28.975Z,15.98
2022-12-04T14:18:11.473Z,17.52
2022-12-04T14:20:39.168Z,18.00
2022-12-04T14:23:19.913Z,17.95
2022-12-04T14:25:47.720Z,17.33
2022-12-04T14:28:25.048Z,17.15
2022-12-04T14:31:31.439Z,17.33
2022-12-04T14:34:02.834Z,17.77
2022-12-04T14:36:43.542Z,18.33
2022-12-04T14:39:44.710Z,17.02
2022-12-04T14:42:17.995Z,17.92
2022-12-04T14:44:46.005Z,19.30
2022-12-04T14:47:28.705Z,18.20
2022-12-04T14:50:17.237Z,18.75
2022-12-04T14:52:58.861Z,19.20
2022-12-04T14:55:37.511Z,19.95
2022-12-04T14:58:30.972Z,17.35
2022-12-04T15:01:01.916Z,18.65
2022-12-04T15:03:31.451Z,19.25
2022-12-04T15:06:04.181Z,21.00
2022-12-04T15:08:31.570Z,19.13
2022-12-04T15:11:17.277Z,19.77
2022-12-04T15:13:44.737Z,20.15
2022-12-04T15:16:20.035Z,20.05
2022-12-04T15:19:00.129Z,19.60
2022-12-04T15:21:47.683Z,21.90
2022-12-04T15:24:20.143Z,20.15
2022-12-04T15:26:47.875Z,20.92
2022-12-04T15:29:26.881Z,19.58
2022-12-04T15:31:56.869Z,19.98
2022-12-04T15:34:51.147Z,19.08
2022-12-04T15:37:20.835Z,21.23
2022-12-04T15:39:50.768Z,20.92
2022-12-04T15:42:28.712Z,21.42
2022-12-04T15:45:07.999Z,21.17
2022-12-04T15:47:41.492Z,22.98
2022-12-04T15:50:18.162Z,22.58
2022-12-04T15:52:58.757Z,21.52
2022-12-04T15:55:27.013Z,21.00
2022-12-04T15:58:27.113Z,21.40
2022-12-04T16:01:05.661Z,21.15
2022-12-04T16:03:39.777Z,20.95
2022-12-04T16:06:26.955Z,20.30
2022-12-04T16:09:21.703Z,18.60
2022-12-04T16:11:59.790Z,19.25
2022-12-04T16:14:27.261Z,18.75
2022-12-04T16:16:55.768Z,17.60
2022-12-04T16:19:30.384Z,18.17
2022-12-04T16:21:57.833Z,17.92
2022-12-04T16:24:25.393Z,16.38
2022-12-04T16:26:54.852Z,20.02
2022-12-04T16:29:23.090Z,17.27
2022-12-04T16:31:50.718Z,17.33
2022-12-04T16:34:18.198Z,18.08
2022-12-04T16:36:45.582Z,16.00
2022-12-04T16:39:12.997Z,16.50
2022-12-04T16:41:40.657Z,16.10
2022-12-04T16:44:15.197Z,17.33
2022-12-04T16:46:42.923Z,16.95
2022-12-04T16:49:13.481Z,16.98
2022-12-04T16:51:44.828Z,16.67
2022-12-04T16:54:12.333Z,16.08
2022-12-04T16:56:39.807Z,17.17
2022-12-04T16:59:11.744Z,17.88
2022-12-04T17:01:43.403Z,16.88
2022-12-04T17:04:10.926Z,16.95
2022-12-04T17:06:38.434Z,17.98
2022-12-04T17:09:05.941Z,16.90
2022-12-04T17:11:33.316Z,16.33
2022-12-04T17:14:02.727Z,15.95
2022-12-04T17:16:30.093Z,15.82
2022-12-04T17:18:57.460Z,16.80
2022-12-04T17:21:24.810Z,15.82
2022-12-04T17:23:52.111Z,16.65
2022-12-04T17:26:22.018Z,15.80
2022-12-04T17:28:50.238Z,15.43
2022-12-04T17:31:21.219Z,14.27
2022-12-04T17:33:48.802Z,15.82
2022-12-04T17:36:21.234Z,15.40
2022-12-04T17:38:48.619Z,14.82
2022-12-04T17:41:16.683Z,16.17
2022-12-04T17:43:44.229Z,15.23
2022-12-04T17:46:13.104Z,15.02
2022-12-04T17:48:40.554Z,15.73
2022-12-04T17:51:10.422Z,15.85
2022-12-04T17:53:37.937Z,16.55
2022-12-04T17:56:07.020Z,15.95
2022-12-04T17:58:34.482Z,15.93
2022-12-04T18:01:06.600Z,16.70
2022-12-04T18:03:34.466Z,16.50
2022-12-04T18:06:13.012Z,16.13
2022-12-04T18:08:43.926Z,16.25
2022-12-04T18:11:14.102Z,16.05
2022-12-04T18:13:41.409Z,15.80
2022-12-04T18:16:10.036Z,16.17
2022-12-04T18:18:37.479Z,15.85
2022-12-04T18:21:09.511Z,14.77
2022-12-04T18:23:40.047Z,13.93
2022-12-04T18:26:07.390Z,15.07
2022-12-04T18:28:34.747Z,16.27
2022-12-04T18:31:06.091Z,15.52
2022-12-04T18:33:34.189Z,14.88
2022-12-04T18:36:01.687Z,15.60
2022-12-04T18:38:32.590Z,15.50
2022-12-04T18:41:06.451Z,15.70
2022-12-04T18:43:37.858Z,17.05
2022-12-04T18:46:09.935Z,16.75
2022-12-04T18:48:37.559Z,16.23
2022-12-04T18:51:22.293Z,16.05
2022-12-04T18:53:50.190Z,14.63
2022-12-04T18:56:17.803Z,15.68
2022-12-04T18:58:46.523Z,16.20
2022-12-04T19:01:15.793Z,16.88
2022-12-04T19:03:43.159Z,16.05
2022-12-04T19:06:12.131Z,15.05
2022-12-04T19:08:43.244Z,14.82
2022-12-04T19:11:15.394Z,15.40
2022-12-04T19:13:42.872Z,15.10
2022-12-04T19:16:14.162Z,15.57
2022-12-04T19:18:42.441Z,15.13
2022-12-04T19:21:09.741Z,15.50
2022-12-04T19:23:37.251Z,14.88
2022-12-04T19:26:04.666Z,15.25
2022-12-04T19:28:31.958Z,13.90
2022-12-04T19:30:59.274Z,15.10
2022-12-04T19:33:26.592Z,13.88
2022-12-04T19:36:01.589Z,14.68
2022-12-04T19:38:29.224Z,14.57
2022-12-04T19:41:13.552Z,16.25
2022-12-04T19:43:42.837Z,15.88
2022-12-04T19:46:11.311Z,16.17
2022-12-04T19:48:38.740Z,18.40
2022-12-04T19:51:08.059Z,16.58
2022-12-04T19:53:40.669Z,16.50
2022-12-04T19:56:10.890Z,13.82
2022-12-04T19:58:38.364Z,14.27
2022-12-04T20:01:08.745Z,13.85
2022-12-04T20:03:36.267Z,13.38
2022-12-04T20:06:04.795Z,13.60
2022-12-04T20:08:32.178Z,14.10
2022-12-04T20:11:06.674Z,13.75
2022-12-04T20:13:37.685Z,13.45
2022-12-04T20:16:06.833Z,14.82
2022-12-04T20:18:34.376Z,14.45
2022-12-04T20:21:01.762Z,14.57
2022-12-04T20:23:29.140Z,14.75
2022-12-04T20:25:56.440Z,14.02
2022-12-04T20:28:23.735Z,15.20
2022-12-04T20:30:51.086Z,14.25
2022-12-04T20:33:18.438Z,14.30
2022-12-04T20:35:45.701Z,13.10
2022-12-04T20:38:14.202Z,14.02
2022-12-04T20:40:41.530Z,13.68
2022-12-04T20:43:08.870Z,14.30
2022-12-04T20:45:36.245Z,12.80
2022-12-04T20:48:03.697Z,13.30
2022-12-04T20:50:30.997Z,13.50
2022-12-04T20:52:58.295Z,13.60
2022-12-04T20:55:25.586Z,12.85
2022-12-04T20:57:52.890Z,14.00
2022-12-04T21:00:20.284Z,13.90
2022-12-04T21:02:47.668Z,14.35
2022-12-04T21:05:14.976Z,13.32
2022-12-04T21:07:42.336Z,13.18
2022-12-04T21:10:10.150Z,13.00
2022-12-04T21:12:56.023Z,13.18
2022-12-04T21:15:41.896Z,13.35
2022-12-04T21:18:09.317Z,14.10
2022-12-04T21:20:36.613Z,13.05
2022-12-04T21:23:03.963Z,13.10
2022-12-04T21:25:31.251Z,13.90
2022-12-04T21:27:58.540Z,13.98
2022-12-04T21:30:25.879Z,14.02
2022-12-04T21:32:53.229Z,12.65
2022-12-04T21:35:20.626Z,13.68
2022-12-04T21:37:47.902Z,12.85
2022-12-04T21:40:15.334Z,14.27
2022-12-04T21:42:43.982Z,14.10
2022-12-04T21:45:11.437Z,12.90
2022-12-04T21:47:38.820Z,13.00
2022-12-04T21:50:06.895Z,14.27
2022-12-04T21:52:34.269Z,13.77
2022-12-04T21:55:01.567Z,12.70
2022-12-04T21:57:29.309Z,13.13
2022-12-04T21:59:56.884Z,13.43
2022-12-04T22:02:24.400Z,13.90
2022-12-04T22:04:51.918Z,13.45
2022-12-04T22:07:19.258Z,13.02
2022-12-04T22:09:46.560Z,13.65
2022-12-04T22:12:41.148Z,13.00
2022-12-04T22:15:01.277Z,13.52
2022-12-04T22:17:31.638Z,13.77
2022-12-04T22:19:59.235Z,13.75
2022-12-04T22:22:26.767Z,13.35
2022-12-04T22:24:54.096Z,13.70
2022-12-04T22:27:21.411Z,14.35
2022-12-04T22:29:50.950Z,13.63
2022-12-04T22:32:19.472Z,14.20
2022-12-04T22:34:49.626Z,17.60
2022-12-04T22:37:16.966Z,13.82
2022-12-04T22:39:44.250Z,14.35
2022-12-04T22:42:11.588Z,13.38
2022-12-04T22:44:38.973Z,13.90
2022-12-04T22:47:06.403Z,13.52
2022-12-04T22:49:33.713Z,14.88
2022-12-04T22:52:01.047Z,14.57
2022-12-04T22:54:28.307Z,13.90
2022-12-04T22:56:55.625Z,13.80
2022-12-04T22:59:22.903Z,14.80
2022-12-04T23:01:50.204Z,14.43
2022-12-04T23:04:17.539Z,14.00
2022-12-04T23:06:44.867Z,13.73
2022-12-04T23:09:14.083Z,13.48
2022-12-04T23:11:41.737Z,13.52
2022-12-04T23:14:11.153Z,13.60
2022-12-04T23:16:38.858Z,13.10
2022-12-04T23:19:07.009Z,12.77
2022-12-04T23:21:34.575Z,14.15
2022-12-04T23:24:01.945Z,13.50
2022-12-04T23:26:34.330Z,14.45
2022-12-04T23:29:01.774Z,13.52
2022-12-04T23:31:29.652Z,13.90
2022-12-04T23:33:57.014Z,14.05
2022-12-04T23:36:24.401Z,13.30
2022-12-04T23:38:51.770Z,13.73
2022-12-04T23:41:20.749Z,13.05
2022-12-04T23:43:48.267Z,13.93
2022-12-04T23:46:17.019Z,13.23
2022-12-04T23:48:44.866Z,13.88
2022-12-04T23:51:13.422Z,13.45
2022-12-04T23:53:40.890Z,13.75
2022-12-04T23:56:20.268Z,14.52
2022-12-04T23:58:48.382Z,14.05
